Time;durP1;ratioP1;P1;durP2;ratioP2;P2;SDS_P1;SDS_P2;PMS_P1;PMS_P2;Temp;Humidity;BMP_temperature;BMP_pressure;BME280_temperature;BME280_humidity;BME280_pressure;Samples;Min_cycle;Max_cycle;Signal;HPM_P1;HPM_P2
2023/09/07 00:00:16;;;;;;;4.70;3.35;;;22.40;99.90;;;;;;4959549;28;20469;-76
2023/09/07 00:02:42;;;;;;;6.10;3.47;;;22.40;99.90;;;;;;4963617;28;20106;-77
2023/09/07 00:05:08;;;;;;;5.28;3.22;;;22.40;99.90;;;;;;4967298;28;20452;-76
2023/09/07 00:07:34;;;;;;;5.03;3.72;;;22.40;99.90;;;;;;4962393;28;20057;-76
2023/09/07 00:10:00;;;;;;;5.72;3.65;;;22.30;99.90;;;;;;4955197;28;20047;-76
2023/09/07 00:12:26;;;;;;;5.50;3.60;;;22.30;99.90;;;;;;4967219;28;20027;-76
2023/09/07 00:14:55;;;;;;;5.32;3.63;;;22.20;99.90;;;;;;4962444;28;20041;-76
2023/09/07 00:17:25;;;;;;;5.93;3.63;;;22.20;99.90;;;;;;4959129;28;20038;-76
2023/09/07 00:19:52;;;;;;;5.70;3.53;;;22.20;99.90;;;;;;4965686;28;20027;-76
2023/09/07 00:22:18;;;;;;;5.40;3.65;;;22.10;99.90;;;;;;4967034;28;20393;-76
2023/09/07 00:24:44;;;;;;;6.25;3.90;;;22.10;99.90;;;;;;4946139;28;20025;-76
2023/09/07 00:27:11;;;;;;;6.18;3.30;;;22.00;99.90;;;;;;4961454;28;20023;-76
2023/09/07 00:29:38;;;;;;;5.53;3.80;;;22.00;99.90;;;;;;4953744;29;20035;-76
2023/09/07 00:32:06;;;;;;;5.97;3.58;;;22.00;99.90;;;;;;4963240;28;20019;-76
2023/09/07 00:34:32;;;;;;;4.88;3.38;;;21.90;99.90;;;;;;4959521;28;20035;-76
2023/09/07 00:36:58;;;;;;;5.65;3.47;;;21.90;99.90;;;;;;4964397;28;20027;-76
2023/09/07 00:39:23;;;;;;;4.97;3.47;;;21.90;99.90;;;;;;4954106;28;20516;-76
2023/09/07 00:41:49;;;;;;;6.20;3.63;;;21.80;99.90;;;;;;4960004;28;20058;-76
2023/09/07 00:44:15;;;;;;;4.63;3.45;;;21.80;99.90;;;;;;4960685;28;20037;-76
2023/09/07 00:46:41;;;;;;;5.32;3.80;;;21.80;99.90;;;;;;4967020;28;20059;-76
2023/09/07 00:49:07;;;;;;;6.43;3.67;;;21.70;99.90;;;;;;4962811;28;20057;-76
2023/09/07 00:51:33;;;;;;;4.25;3.17;;;21.70;99.90;;;;;;4957443;28;20036;-76
2023/09/07 00:53:59;;;;;;;5.68;3.53;;;21.70;99.90;;;;;;4965680;28;20015;-76
2023/09/07 00:56:26;;;;;;;5.95;3.42;;;21.70;99.90;;;;;;4970656;28;20042;-76
2023/09/07 00:58:55;;;;;;;5.72;3.50;;;21.60;99.90;;;;;;4964293;28;20041;-76
2023/09/07 01:01:23;;;;;;;6.13;3.72;;;21.60;99.90;;;;;;4963437;28;20038;-76
2023/09/07 01:03:50;;;;;;;6.70;3.78;;;21.50;99.90;;;;;;4973262;28;20535;-76
2023/09/07 01:06:30;;;;;;;5.45;4.15;;;21.50;99.90;;;;;;4963643;28;20050;-76
2023/09/07 01:08:58;;;;;;;4.88;3.70;;;21.40;99.90;;;;;;4971271;28;20041;-76
2023/09/07 01:11:24;;;;;;;5.55;3.70;;;21.40;99.90;;;;;;4960686;28;20102;-76
2023/09/07 01:13:53;;;;;;;8.05;3.75;;;21.40;99.90;;;;;;4970746;28;20019;-76
2023/09/07 01:16:21;;;;;;;8.43;4.97;;;21.40;99.90;;;;;;4961637;28;20477;-76
2023/09/07 01:18:47;;;;;;;6.28;3.88;;;21.40;99.90;;;;;;4972077;28;20263;-76
2023/09/07 01:21:14;;;;;;;6.15;3.88;;;21.30;99.90;;;;;;4970301;28;20019;-76
2023/09/07 01:23:41;;;;;;;7.53;4.35;;;21.30;99.90;;;;;;4967595;28;20035;-76
2023/09/07 01:26:11;;;;;;;6.55;4.45;;;21.30;99.90;;;;;;4957947;28;20519;-77
2023/09/07 01:28:37;;;;;;;6.38;4.47;;;21.30;99.90;;;;;;4965038;28;20568;-76
2023/09/07 01:31:04;;;;;;;6.93;3.97;;;21.30;99.90;;;;;;4977130;28;20023;-76
2023/09/07 01:33:30;;;;;;;6.13;4.45;;;21.30;99.90;;;;;;4966972;28;20020;-76
2023/09/07 01:35:55;;;;;;;7.78;5.25;;;21.30;99.90;;;;;;4970073;28;20033;-76
2023/09/07 01:38:21;;;;;;;6.82;4.35;;;21.30;99.90;;;;;;4962192;28;20053;-76
2023/09/07 01:40:47;;;;;;;6.63;4.72;;;21.30;99.90;;;;;;4963854;28;20089;-76
2023/09/07 01:43:12;;;;;;;5.68;4.25;;;21.30;99.90;;;;;;4953487;29;20027;-76
2023/09/07 01:45:38;;;;;;;7.63;5.15;;;21.20;99.90;;;;;;4966305;28;20015;-76
2023/09/07 01:48:09;;;;;;;7.18;4.88;;;21.20;99.90;;;;;;4962338;28;20667;-76
2023/09/07 01:50:36;;;;;;;6.30;3.88;;;21.20;99.90;;;;;;4967662;28;20092;-76
2023/09/07 01:53:03;;;;;;;6.82;4.90;;;21.20;99.90;;;;;;4939969;28;20019;-76
2023/09/07 01:55:28;;;;;;;6.15;4.57;;;21.20;99.90;;;;;;4968866;28;20027;-76
2023/09/07 01:57:54;;;;;;;6.10;4.50;;;21.10;99.90;;;;;;4968797;28;20612;-76
2023/09/07 02:00:20;;;;;;;5.97;4.07;;;21.10;99.90;;;;;;4961853;28;20568;-76
2023/09/07 02:02:45;;;;;;;8.10;4.82;;;21.10;99.90;;;;;;4964750;28;20029;-76
2023/09/07 02:05:12;;;;;;;7.78;3.75;;;21.10;99.90;;;;;;4969931;28;20025;-76
2023/09/07 02:07:38;;;;;;;9.98;4.85;;;21.00;99.90;;;;;;4965061;28;20089;-76
2023/09/07 02:10:04;;;;;;;5.97;4.90;;;21.00;99.90;;;;;;4961923;28;20402;-76
2023/09/07 02:12:32;;;;;;;6.45;4.60;;;20.90;99.90;;;;;;4957131;28;20143;-76
2023/09/07 02:15:01;;;;;;;5.93;4.60;;;21.00;99.90;;;;;;4948758;28;20023;-76
2023/09/07 02:17:26;;;;;;;5.85;4.30;;;21.00;99.90;;;;;;4969184;28;20062;-76
2023/09/07 02:19:52;;;;;;;6.95;4.90;;;20.90;99.90;;;;;;4963749;28;20652;-76
2023/09/07 02:22:18;;;;;;;7.05;4.57;;;20.90;99.90;;;;;;4961276;28;20046;-76
2023/09/07 02:24:43;;;;;;;7.65;5.20;;;20.90;99.90;;;;;;4944213;28;20046;-75
2023/09/07 02:27:09;;;;;;;7.47;4.72;;;20.90;99.90;;;;;;4963263;28;20023;-75
2023/09/07 02:29:35;;;;;;;5.15;3.90;;;20.80;99.90;;;;;;4969186;28;20038;-75
2023/09/07 02:32:00;;;;;;;7.97;5.13;;;20.80;99.90;;;;;;4965076;28;20034;-75
2023/09/07 02:34:26;;;;;;;6.18;4.50;;;20.80;99.90;;;;;;4961212;28;20055;-75
2023/09/07 02:36:52;;;;;;;7.47;4.80;;;20.70;99.90;;;;;;4967046;28;20212;-76
2023/09/07 02:39:18;;;;;;;8.18;4.97;;;20.70;99.90;;;;;;4954761;28;20141;-76
2023/09/07 02:41:45;;;;;;;6.25;4.32;;;20.70;99.90;;;;;;4960882;28;20489;-76
2023/09/07 02:44:11;;;;;;;7.47;4.82;;;20.70;99.90;;;;;;4962956;28;20054;-75
2023/09/07 02:46:39;;;;;;;5.55;3.95;;;20.70;99.90;;;;;;4968442;28;20529;-75
2023/09/07 02:49:05;;;;;;;6.30;4.78;;;20.70;99.90;;;;;;4965586;28;20122;-75
2023/09/07 02:51:31;;;;;;;8.68;4.80;;;20.60;99.90;;;;;;4956940;28;20047;-76
2023/09/07 02:53:57;;;;;;;8.13;4.38;;;20.60;99.90;;;;;;4978180;28;20035;-75
2023/09/07 02:56:23;;;;;;;6.88;4.95;;;20.60;99.90;;;;;;4960386;28;20037;-76
2023/09/07 02:58:48;;;;;;;6.50;4.53;;;20.60;99.90;;;;;;4968660;28;20110;-76
2023/09/07 03:01:14;;;;;;;7.20;5.15;;;20.50;99.90;;;;;;4966614;28;20034;-76
2023/09/07 03:03:42;;;;;;;7.90;5.00;;;20.50;99.90;;;;;;4960690;28;20548;-76
2023/09/07 03:06:12;;;;;;;9.57;5.50;;;20.50;99.90;;;;;;4963831;28;20035;-76
2023/09/07 03:08:42;;;;;;;7.10;5.25;;;20.50;99.90;;;;;;4968718;28;20026;-76
2023/09/07 03:11:09;;;;;;;6.50;4.63;;;20.40;99.90;;;;;;4958418;28;20490;-76
2023/09/07 03:13:38;;;;;;;7.60;5.20;;;20.40;99.90;;;;;;4966836;28;20473;-76
2023/09/07 03:16:05;;;;;;;7.05;4.85;;;20.40;99.90;;;;;;4960016;28;20030;-76
2023/09/07 03:18:31;;;;;;;9.05;5.20;;;20.40;99.90;;;;;;4961945;28;20038;-76
2023/09/07 03:21:03;;;;;;;7.70;5.00;;;20.40;99.90;;;;;;4968292;28;20023;-76
2023/09/07 03:23:30;;;;;;;8.57;5.20;;;20.40;99.90;;;;;;4962644;28;20031;-76
2023/09/07 03:25:57;;;;;;;6.70;5.35;;;20.40;99.90;;;;;;4975017;28;20031;-76
2023/09/07 03:28:23;;;;;;;8.30;4.90;;;20.30;99.90;;;;;;4966198;28;20050;-76
2023/09/07 03:30:48;;;;;;;7.53;5.30;;;20.30;99.90;;;;;;4968004;28;20480;-76
2023/09/07 03:33:14;;;;;;;7.03;5.03;;;20.30;99.90;;;;;;4946818;28;20050;-76
2023/09/07 03:35:40;;;;;;;7.90;4.97;;;20.20;99.90;;;;;;4962354;28;20030;-76
2023/09/07 03:38:06;;;;;;;6.20;4.93;;;20.20;99.90;;;;;;4967925;28;20027;-76
2023/09/07 03:40:32;;;;;;;6.45;5.43;;;20.20;99.90;;;;;;4963884;28;20105;-76
2023/09/07 03:43:01;;;;;;;9.50;5.38;;;20.20;99.90;;;;;;4942506;28;20038;-76
2023/09/07 03:45:26;;;;;;;7.25;5.07;;;20.20;99.90;;;;;;4964287;28;20030;-76
2023/09/07 03:47:52;;;;;;;7.88;4.72;;;20.10;99.90;;;;;;4950425;28;20026;-76
2023/09/07 03:50:18;;;;;;;7.25;5.22;;;20.10;99.90;;;;;;4960466;28;20026;-76
2023/09/07 03:52:43;;;;;;;8.07;5.10;;;20.10;99.90;;;;;;4961372;28;20050;-76
2023/09/07 03:55:09;;;;;;;6.55;5.15;;;20.10;99.90;;;;;;4951062;29;20031;-76
2023/09/07 03:57:35;;;;;;;6.40;4.78;;;20.00;99.90;;;;;;4963747;28;20035;-76
2023/09/07 04:00:01;;;;;;;8.18;4.57;;;20.00;99.90;;;;;;4959597;28;20034;-75
2023/09/07 04:02:26;;;;;;;8.20;5.50;;;20.00;99.90;;;;;;4960325;28;20016;-76
2023/09/07 04:04:55;;;;;;;6.55;5.00;;;20.00;99.90;;;;;;4945316;28;20159;-76
2023/09/07 04:07:20;;;;;;;8.55;5.25;;;20.00;99.90;;;;;;4955330;28;20034;-76
2023/09/07 04:09:46;;;;;;;8.02;5.25;;;20.00;99.90;;;;;;4956198;28;20023;-78
2023/09/07 04:12:12;;;;;;;6.15;4.80;;;20.00;99.90;;;;;;4953118;28;20034;-76
2023/09/07 04:14:38;;;;;;;7.18;4.85;;;19.90;99.90;;;;;;4961595;28;20031;-75
2023/09/07 04:17:04;;;;;;;8.48;5.13;;;19.90;99.90;;;;;;4960952;28;20042;-77
2023/09/07 04:19:30;;;;;;;7.63;5.10;;;19.90;99.90;;;;;;4950191;28;20015;-76
2023/09/07 04:21:57;;;;;;;6.72;5.05;;;19.90;99.90;;;;;;4938595;29;20486;-76
2023/09/07 04:24:23;;;;;;;8.05;5.45;;;19.90;99.90;;;;;;4962509;28;20027;-75
2023/09/07 04:26:49;;;;;;;8.05;5.70;;;19.80;99.90;;;;;;4957240;28;20505;-75
2023/09/07 04:29:15;;;;;;;7.75;5.15;;;19.90;99.90;;;;;;4954305;28;20031;-75
2023/09/07 04:31:41;;;;;;;7.10;5.07;;;19.90;99.90;;;;;;4961247;28;20428;-75
2023/09/07 04:34:07;;;;;;;11.35;6.15;;;19.80;99.90;;;;;;4948985;28;20702;-74
2023/09/07 04:36:33;;;;;;;10.13;5.53;;;19.80;99.90;;;;;;4961791;28;20038;-74
2023/09/07 04:38:59;;;;;;;8.25;5.80;;;19.80;99.90;;;;;;4959545;28;20035;-74
2023/09/07 04:41:25;;;;;;;7.07;5.32;;;19.80;99.90;;;;;;4953992;28;20389;-74
2023/09/07 04:43:50;;;;;;;7.80;5.95;;;19.80;99.90;;;;;;4959471;28;20028;-74
2023/09/07 04:46:16;;;;;;;8.82;5.75;;;19.80;99.90;;;;;;4962077;28;20026;-74
2023/09/07 04:48:43;;;;;;;7.18;5.72;;;19.80;99.90;;;;;;4955747;28;20043;-74
2023/09/07 04:51:09;;;;;;;7.03;5.40;;;19.70;99.90;;;;;;4955028;28;20078;-74
2023/09/07 04:53:38;;;;;;;8.40;5.72;;;19.70;99.90;;;;;;4962039;28;20027;-74
2023/09/07 04:56:05;;;;;;;6.50;5.45;;;19.70;99.90;;;;;;4958633;28;20027;-75
2023/09/07 04:58:31;;;;;;;7.22;5.25;;;19.70;99.90;;;;;;4954334;28;20303;-74
2023/09/07 05:01:06;;;;;;;9.88;5.32;;;19.70;99.90;;;;;;4958011;28;20019;-74
2023/09/07 05:03:33;;;;;;;6.72;5.28;;;19.60;99.90;;;;;;4961912;28;20401;-74
2023/09/07 05:05:59;;;;;;;6.35;5.13;;;19.60;99.90;;;;;;4958388;28;20027;-74
2023/09/07 05:08:25;;;;;;;7.75;5.68;;;19.60;99.90;;;;;;4961763;28;20050;-74
2023/09/07 05:11:02;;;;;;;6.57;5.10;;;19.60;99.90;;;;;;4951917;28;20105;-74
2023/09/07 05:13:28;;;;;;;9.65;5.70;;;19.60;99.90;;;;;;4942107;28;20157;-74
2023/09/07 05:15:55;;;;;;;9.80;5.13;;;19.60;99.90;;;;;;4950800;28;20151;-73
2023/09/07 05:18:21;;;;;;;7.90;5.63;;;19.60;99.90;;;;;;4947924;29;20062;-74
2023/09/07 05:20:51;;;;;;;9.25;5.88;;;19.60;99.90;;;;;;4955745;28;20019;-73
2023/09/07 05:23:19;;;;;;;9.90;5.10;;;19.60;99.90;;;;;;4930511;29;20026;-74
2023/09/07 05:25:55;;;;;;;6.20;5.25;;;19.50;99.90;;;;;;4957427;28;20015;-74
2023/09/07 05:28:22;;;;;;;7.60;6.10;;;19.50;99.90;;;;;;4946190;28;20029;-74
2023/09/07 05:30:48;;;;;;;9.57;6.13;;;19.50;99.90;;;;;;4957181;28;20070;-74
2023/09/07 05:33:16;;;;;;;8.30;5.40;;;19.50;99.90;;;;;;4961149;28;20020;-74
2023/09/07 05:35:42;;;;;;;9.55;5.78;;;19.50;99.90;;;;;;4959767;28;20026;-74
2023/09/07 05:38:08;;;;;;;8.68;6.03;;;19.50;99.90;;;;;;4953406;28;20026;-74
2023/09/07 05:40:39;;;;;;;10.98;6.28;;;19.50;99.90;;;;;;4943711;28;20268;-74
2023/09/07 05:43:05;;;;;;;8.57;6.35;;;19.50;99.90;;;;;;4954143;28;20531;-76
2023/09/07 05:45:34;;;;;;;8.70;6.00;;;19.50;99.90;;;;;;4954174;28;20016;-74
2023/09/07 05:47:59;;;;;;;8.85;5.78;;;19.50;99.90;;;;;;4953258;28;20031;-74
2023/09/07 05:50:25;;;;;;;6.68;5.53;;;19.50;99.90;;;;;;4954414;28;20126;-74
2023/09/07 05:52:51;;;;;;;7.18;6.13;;;19.50;99.90;;;;;;4951718;28;20042;-75
2023/09/07 05:55:17;;;;;;;10.70;6.70;;;19.50;99.90;;;;;;4952876;28;20030;-74
2023/09/07 05:57:42;;;;;;;8.85;5.90;;;19.50;99.90;;;;;;4959031;28;20045;-75
2023/09/07 06:00:09;;;;;;;6.40;5.43;;;19.60;99.90;;;;;;4937283;28;20014;-74
2023/09/07 06:02:35;;;;;;;8.00;5.78;;;19.60;99.90;;;;;;4962905;28;20441;-74
2023/09/07 06:05:01;;;;;;;7.22;5.97;;;19.60;99.90;;;;;;4962990;28;20023;-74
2023/09/07 06:07:27;;;;;;;7.75;5.80;;;19.60;99.90;;;;;;4966260;28;20045;-74
2023/09/07 06:09:52;;;;;;;7.15;5.97;;;19.70;99.90;;;;;;4953021;28;20486;-75
2023/09/07 06:12:19;;;;;;;9.02;6.40;;;19.70;99.90;;;;;;4954831;28;20591;-74
2023/09/07 06:14:46;;;;;;;8.88;6.55;;;19.70;99.90;;;;;;4958658;28;20496;-75
2023/09/07 06:17:12;;;;;;;10.85;6.35;;;19.80;99.90;;;;;;4954827;28;20035;-74
2023/09/07 06:19:38;;;;;;;17.25;7.00;;;19.80;99.90;;;;;;4958499;28;20023;-74
2023/09/07 06:22:04;;;;;;;10.45;6.53;;;19.90;99.90;;;;;;4952738;28;20066;-75
2023/09/07 06:24:30;;;;;;;11.13;6.63;;;19.90;99.90;;;;;;4963464;28;20490;-74
2023/09/07 06:26:55;;;;;;;8.65;6.43;;;19.90;99.90;;;;;;4943941;28;20049;-74
2023/09/07 06:29:22;;;;;;;8.93;6.72;;;20.00;99.90;;;;;;4964349;28;20117;-75
2023/09/07 06:31:49;;;;;;;8.18;6.78;;;20.00;99.90;;;;;;4958209;28;20058;-75
2023/09/07 06:34:15;;;;;;;11.50;7.40;;;20.00;99.90;;;;;;4956418;28;20043;-74
2023/09/07 06:36:41;;;;;;;11.55;6.18;;;20.10;99.90;;;;;;4948955;29;20019;-75
2023/09/07 06:39:07;;;;;;;10.63;6.82;;;20.10;99.90;;;;;;4962838;28;20043;-74
2023/09/07 06:41:33;;;;;;;10.43;6.25;;;20.20;99.90;;;;;;4956052;28;20022;-75
2023/09/07 06:43:58;;;;;;;9.05;6.72;;;20.20;99.90;;;;;;4960528;28;20039;-75
2023/09/07 06:46:24;;;;;;;10.27;6.53;;;20.30;99.90;;;;;;4963794;28;20545;-74
2023/09/07 06:48:50;;;;;;;9.07;6.30;;;20.30;99.90;;;;;;4960775;28;20034;-74
2023/09/07 06:51:15;;;;;;;9.65;6.00;;;20.40;99.90;;;;;;4961723;28;20108;-74
2023/09/07 06:53:41;;;;;;;8.80;6.18;;;20.40;99.90;;;;;;4954154;28;20062;-74
2023/09/07 06:56:07;;;;;;;9.02;6.78;;;20.40;99.90;;;;;;4956807;28;20030;-74
2023/09/07 06:58:34;;;;;;;8.38;6.72;;;20.50;99.90;;;;;;4947649;28;20073;-74
2023/09/07 07:01:00;;;;;;;9.43;6.25;;;20.50;99.90;;;;;;4959165;28;20026;-74
2023/09/07 07:03:30;;;;;;;9.70;6.43;;;20.60;99.90;;;;;;4962906;28;20510;-74
2023/09/07 07:05:56;;;;;;;8.53;6.80;;;20.60;99.90;;;;;;4952337;28;20127;-75
2023/09/07 07:08:22;;;;;;;7.03;5.97;;;20.60;99.90;;;;;;4950784;28;20266;-74
2023/09/07 07:10:48;;;;;;;7.63;6.50;;;20.70;99.90;;;;;;4960245;28;20088;-74
2023/09/07 07:13:14;;;;;;;8.38;5.75;;;20.70;99.90;;;;;;4967634;28;20023;-74
2023/09/07 07:15:40;;;;;;;8.43;6.07;;;20.80;99.90;;;;;;4964867;28;20027;-74
2023/09/07 07:18:08;;;;;;;6.18;5.25;;;20.80;99.90;;;;;;4965573;28;20030;-74
2023/09/07 07:20:35;;;;;;;7.20;5.68;;;20.80;99.90;;;;;;4961945;28;20093;-74
2023/09/07 07:23:01;;;;;;;9.65;6.10;;;20.90;99.90;;;;;;4949168;28;20051;-74
2023/09/07 07:25:27;;;;;;;6.97;5.40;;;20.90;99.90;;;;;;4961143;28;20023;-74
2023/09/07 07:27:53;;;;;;;6.88;5.38;;;20.90;99.90;;;;;;4955326;28;20496;-74
2023/09/07 07:30:18;;;;;;;9.60;5.90;;;21.00;99.90;;;;;;4955616;28;20027;-74
2023/09/07 07:32:44;;;;;;;7.25;5.22;;;21.00;99.90;;;;;;4961292;28;20509;-75
2023/09/07 07:35:10;;;;;;;7.32;5.80;;;21.00;99.90;;;;;;4956803;28;20035;-73
2023/09/07 07:37:35;;;;;;;7.82;6.18;;;21.10;99.90;;;;;;4955195;28;20557;-74
2023/09/07 07:40:01;;;;;;;8.57;6.07;;;21.20;99.90;;;;;;4963044;28;20054;-75
2023/09/07 07:42:27;;;;;;;8.02;5.82;;;21.20;99.90;;;;;;4960566;28;20110;-74
2023/09/07 07:44:52;;;;;;;8.52;5.70;;;21.20;99.90;;;;;;4955370;28;20072;-74
2023/09/07 07:47:18;;;;;;;8.43;5.85;;;21.30;99.90;;;;;;4959278;28;20023;-74
2023/09/07 07:49:44;;;;;;;7.20;5.88;;;21.30;99.90;;;;;;4963137;28;20481;-75
2023/09/07 07:52:10;;;;;;;9.68;5.95;;;21.40;99.90;;;;;;4956676;28;20033;-75
2023/09/07 07:54:36;;;;;;;12.07;5.90;;;21.50;99.90;;;;;;4955144;28;20030;-75
2023/09/07 07:57:02;;;;;;;8.63;6.22;;;21.50;99.90;;;;;;4962545;28;20111;-75
2023/09/07 07:59:27;;;;;;;10.55;6.03;;;21.60;99.90;;;;;;4960377;28;20117;-73
2023/09/07 08:01:53;;;;;;;8.25;5.90;;;21.60;99.90;;;;;;4954747;28;20057;-74
2023/09/07 08:04:19;;;;;;;8.48;5.93;;;21.70;99.90;;;;;;4964703;28;20031;-74
2023/09/07 08:06:45;;;;;;;8.20;5.85;;;21.70;99.90;;;;;;4937273;28;20587;-73
2023/09/07 08:09:10;;;;;;;11.40;6.95;;;21.80;99.90;;;;;;4941621;29;20031;-74
2023/09/07 08:11:38;;;;;;;8.90;6.40;;;21.90;99.90;;;;;;4944737;28;20145;-74
2023/09/07 08:14:04;;;;;;;10.35;6.63;;;21.90;99.90;;;;;;4945319;28;20047;-74
2023/09/07 08:16:29;;;;;;;8.73;6.45;;;22.00;99.90;;;;;;4945621;28;20023;-74
2023/09/07 08:18:55;;;;;;;12.05;6.50;;;22.10;99.90;;;;;;4954640;28;20031;-74
2023/09/07 08:21:20;;;;;;;8.77;6.00;;;22.20;99.90;;;;;;4941302;28;20069;-74
2023/09/07 08:23:46;;;;;;;8.43;6.13;;;22.20;99.90;;;;;;4938328;29;20027;-74
2023/09/07 08:26:14;;;;;;;10.38;6.32;;;22.30;99.90;;;;;;4963057;28;20106;-74
2023/09/07 08:28:39;;;;;;;10.68;6.90;;;22.40;99.90;;;;;;4958411;28;20030;-74
2023/09/07 08:31:05;;;;;;;8.77;5.88;;;22.50;99.90;;;;;;4953763;28;20035;-74
2023/09/07 08:33:35;;;;;;;7.35;6.22;;;22.50;99.90;;;;;;4958125;28;20393;-74
2023/09/07 08:36:01;;;;;;;7.28;5.90;;;22.60;99.90;;;;;;4930461;28;20050;-74
2023/09/07 08:38:27;;;;;;;7.15;5.63;;;22.70;99.90;;;;;;4945324;29;20102;-74
2023/09/07 08:40:57;;;;;;;8.93;6.10;;;22.70;99.90;;;;;;4959472;28;20035;-74
2023/09/07 08:43:23;;;;;;;8.95;5.78;;;22.80;99.90;;;;;;4952033;28;20571;-74
2023/09/07 08:45:57;;;;;;;8.48;7.35;;;22.90;99.90;;;;;;4954545;28;20089;-74
2023/09/07 08:48:25;;;;;;;10.77;7.57;;;23.00;99.90;;;;;;4962017;28;20019;-74
2023/09/07 08:50:52;;;;;;;8.98;6.85;;;23.10;99.90;;;;;;4959510;28;20044;-75
2023/09/07 08:53:19;;;;;;;7.38;6.57;;;23.20;99.90;;;;;;4965519;28;20505;-75
2023/09/07 08:55:45;;;;;;;10.02;6.05;;;23.20;99.90;;;;;;4959178;28;20034;-74
2023/09/07 08:58:11;;;;;;;11.68;6.13;;;23.30;99.90;;;;;;4961779;28;20039;-75
2023/09/07 09:00:37;;;;;;;9.05;6.43;;;23.40;99.90;;;;;;4954247;28;20019;-75
2023/09/07 09:03:04;;;;;;;8.57;6.07;;;23.50;99.90;;;;;;4954540;28;20490;-75
2023/09/07 09:05:30;;;;;;;7.95;6.47;;;23.60;99.90;;;;;;4962054;28;20031;-74
2023/09/07 09:08:06;;;;;;;7.35;6.40;;;23.70;99.90;;;;;;4959479;28;20023;-75
2023/09/07 09:10:32;;;;;;;11.77;5.53;;;23.80;99.90;;;;;;4953189;28;20031;-75
2023/09/07 09:13:01;;;;;;;8.82;5.13;;;23.80;99.90;;;;;;4954847;28;20086;-75
2023/09/07 09:15:27;;;;;;;9.35;5.90;;;23.90;99.90;;;;;;4956370;28;20518;-75
2023/09/07 09:17:53;;;;;;;7.20;4.63;;;24.00;99.90;;;;;;4965143;28;20047;-75
2023/09/07 09:20:28;;;;;;;6.88;5.15;;;24.10;99.90;;;;;;4963415;28;20047;-75
2023/09/07 09:22:55;;;;;;;7.47;5.60;;;24.20;99.90;;;;;;4957159;28;20481;-75
2023/09/07 09:25:21;;;;;;;6.88;4.97;;;24.30;99.90;;;;;;4960336;28;20031;-75
2023/09/07 09:27:47;;;;;;;7.85;5.30;;;24.40;99.90;;;;;;4954728;28;20046;-74
2023/09/07 09:30:15;;;;;;;8.20;4.88;;;24.50;99.90;;;;;;4966875;28;20453;-75
2023/09/07 09:32:43;;;;;;;7.47;4.70;;;24.60;99.90;;;;;;4967950;28;20037;-75
2023/09/07 09:35:09;;;;;;;8.77;4.70;;;24.60;99.90;;;;;;4959382;28;20022;-75
2023/09/07 09:37:52;;;;;;;8.40;4.30;;;24.80;99.90;;;;;;4966332;28;20082;-75
2023/09/07 09:40:18;;;;;;;7.85;3.70;;;24.80;99.90;;;;;;4944644;28;20544;-75
2023/09/07 09:42:45;;;;;;;8.15;4.38;;;24.90;99.90;;;;;;4953187;28;20047;-74
2023/09/07 09:45:12;;;;;;;6.00;4.07;;;25.00;99.90;;;;;;4961988;28;20023;-75
2023/09/07 09:47:41;;;;;;;6.15;3.90;;;25.10;99.90;;;;;;4955221;28;20020;-75
2023/09/07 09:50:10;;;;;;;4.70;3.17;;;25.10;99.90;;;;;;4957191;28;20042;-74
2023/09/07 09:52:37;;;;;;;6.43;3.25;;;25.20;99.90;;;;;;4952589;28;20027;-75
2023/09/07 09:55:07;;;;;;;5.25;3.22;;;25.30;99.90;;;;;;4935207;28;20031;-75
2023/09/07 09:57:35;;;;;;;5.18;3.67;;;25.40;99.90;;;;;;4960783;28;20113;-74
2023/09/07 10:00:07;;;;;;;4.50;3.33;;;25.50;99.90;;;;;;4966887;28;20027;-74
2023/09/07 10:02:37;;;;;;;5.75;3.42;;;25.50;99.90;;;;;;4966780;28;20024;-75
2023/09/07 10:05:07;;;;;;;7.15;4.22;;;25.60;99.90;;;;;;4961831;28;20031;-74
2023/09/07 10:07:48;;;;;;;6.10;3.47;;;25.70;99.90;;;;;;4963788;28;20027;-74
2023/09/07 10:10:17;;;;;;;6.18;3.08;;;25.80;99.90;;;;;;4959815;28;20147;-74
2023/09/07 10:12:45;;;;;;;6.17;3.60;;;25.80;99.90;;;;;;4952749;28;20637;-75
2023/09/07 10:15:24;;;;;;;10.10;3.75;;;25.90;99.90;;;;;;4951064;28;20047;-74
2023/09/07 10:17:50;;;;;;;6.93;3.38;;;26.00;99.90;;;;;;4967824;28;20389;-75
2023/09/07 10:20:17;;;;;;;5.13;3.40;;;26.00;99.90;;;;;;4963524;28;20034;-76
2023/09/07 10:22:43;;;;;;;6.38;3.85;;;26.10;99.90;;;;;;4958227;28;20093;-75
2023/09/07 10:25:31;;;;;;;6.25;3.53;;;26.10;99.90;;;;;;4959685;28;20019;-76
2023/09/07 10:27:56;;;;;;;5.55;3.40;;;26.20;99.90;;;;;;4959517;28;20041;-75
2023/09/07 10:30:24;;;;;;;7.18;3.78;;;26.30;99.90;;;;;;4954001;28;20114;-75
2023/09/07 10:32:49;;;;;;;6.20;3.67;;;26.30;99.90;;;;;;4953759;28;20070;-74
2023/09/07 10:35:25;;;;;;;6.75;3.38;;;26.40;99.90;;;;;;4951202;28;20039;-75
2023/09/07 10:37:51;;;;;;;5.47;3.55;;;26.50;99.90;;;;;;4952219;28;20117;-75
2023/09/07 10:40:21;;;;;;;7.57;3.15;;;26.60;99.40;;;;;;4962111;28;20573;-76
2023/09/07 10:42:48;;;;;;;5.63;3.35;;;26.60;99.30;;;;;;4963255;28;20023;-75
2023/09/07 10:45:16;;;;;;;4.68;3.60;;;26.70;99.20;;;;;;4949870;28;20023;-75
2023/09/07 10:47:46;;;;;;;4.28;2.95;;;26.80;99.10;;;;;;4946400;28;20066;-75
2023/09/07 10:50:13;;;;;;;5.53;3.47;;;26.90;98.90;;;;;;4965667;28;20030;-75
2023/09/07 10:52:43;;;;;;;5.30;3.17;;;26.90;98.80;;;;;;4960171;28;20031;-75
2023/09/07 10:55:10;;;;;;;9.18;3.45;;;27.00;98.40;;;;;;4961885;28;20023;-75
2023/09/07 10:57:47;;;;;;;4.53;3.25;;;27.10;98.10;;;;;;4951978;28;20090;-75
2023/09/07 11:00:13;;;;;;;5.90;3.40;;;27.20;97.60;;;;;;4956141;28;20021;-75
2023/09/07 11:02:43;;;;;;;8.23;3.58;;;27.20;97.80;;;;;;4954997;28;20062;-75
2023/09/07 11:05:10;;;;;;;5.70;3.33;;;27.30;97.60;;;;;;4964196;28;20027;-75
2023/09/07 11:07:36;;;;;;;5.97;3.13;;;27.40;97.70;;;;;;4958069;28;20089;-75
2023/09/07 11:10:04;;;;;;;6.78;3.13;;;27.40;97.50;;;;;;4955816;28;20581;-75
2023/09/07 11:12:37;;;;;;;6.15;3.33;;;27.50;97.10;;;;;;4955232;28;20126;-75
2023/09/07 11:15:04;;;;;;;7.22;3.92;;;27.60;96.80;;;;;;4954445;28;20493;-75
2023/09/07 11:17:30;;;;;;;5.25;2.97;;;27.70;96.90;;;;;;4951805;28;20031;-75
2023/09/07 11:19:55;;;;;;;5.72;3.20;;;27.70;96.90;;;;;;4950567;28;20023;-75
2023/09/07 11:22:22;;;;;;;6.30;3.35;;;27.80;96.80;;;;;;4950985;28;20076;-75
2023/09/07 11:24:48;;;;;;;5.88;3.50;;;27.90;96.60;;;;;;4949318;28;20027;-74
2023/09/07 11:27:17;;;;;;;5.03;3.03;;;27.90;96.40;;;;;;4948160;28;20039;-74
2023/09/07 11:29:53;;;;;;;7.07;3.15;;;28.00;96.50;;;;;;4951279;28;20589;-74
2023/09/07 11:32:21;;;;;;;3.95;2.92;;;28.10;96.70;;;;;;4944989;28;20039;-74
2023/09/07 11:34:51;;;;;;;6.63;3.28;;;28.10;96.10;;;;;;4948073;28;20513;-74
2023/09/07 11:37:18;;;;;;;5.82;3.20;;;28.20;95.60;;;;;;4946155;28;20042;-75
2023/09/07 11:39:44;;;;;;;4.85;3.00;;;28.30;95.30;;;;;;4942726;28;20421;-75
2023/09/07 11:42:10;;;;;;;6.43;3.63;;;28.30;94.90;;;;;;4953325;28;20019;-74
2023/09/07 11:44:35;;;;;;;4.60;3.03;;;28.40;94.20;;;;;;4960723;28;20517;-75
2023/09/07 11:47:01;;;;;;;8.10;2.90;;;28.40;94.10;;;;;;4953996;28;20042;-74
2023/09/07 11:49:27;;;;;;;5.78;3.10;;;28.50;94.20;;;;;;4950502;28;20062;-75
2023/09/07 11:51:52;;;;;;;7.20;3.30;;;28.50;94.30;;;;;;4962847;28;20140;-74
2023/09/07 11:54:19;;;;;;;5.13;2.95;;;28.60;94.30;;;;;;4959880;28;20834;-75
2023/09/07 11:56:45;;;;;;;6.80;3.25;;;28.60;94.20;;;;;;4955105;28;20027;-75
2023/09/07 11:59:11;;;;;;;4.65;3.00;;;28.70;94.00;;;;;;4957891;28;20035;-75
2023/09/07 12:01:39;;;;;;;5.72;3.33;;;28.80;93.90;;;;;;4963128;28;20025;-75
2023/09/07 12:04:05;;;;;;;3.67;2.83;;;28.80;94.10;;;;;;4956012;28;20031;-75
2023/09/07 12:06:31;;;;;;;6.00;3.20;;;28.90;94.40;;;;;;4954983;28;20482;-74
2023/09/07 12:09:01;;;;;;;4.50;2.83;;;28.90;93.90;;;;;;4961259;28;20542;-75
2023/09/07 12:11:27;;;;;;;3.33;2.55;;;28.90;93.90;;;;;;4952416;28;20027;-74
2023/09/07 12:13:53;;;;;;;5.18;3.05;;;29.00;94.10;;;;;;4948321;28;20086;-75
2023/09/07 12:16:18;;;;;;;5.68;3.30;;;29.00;94.00;;;;;;4957739;28;20525;-74
2023/09/07 12:18:44;;;;;;;5.65;2.83;;;29.00;93.80;;;;;;4955681;28;20363;-75
2023/09/07 12:21:10;;;;;;;8.80;3.15;;;29.00;93.50;;;;;;4962750;28;20359;-75
2023/09/07 12:23:35;;;;;;;5.47;3.15;;;29.10;93.50;;;;;;4958372;28;20538;-75
2023/09/07 12:26:04;;;;;;;5.15;3.40;;;29.10;93.00;;;;;;4954677;28;20434;-74
2023/09/07 12:28:30;;;;;;;4.72;3.35;;;29.20;93.00;;;;;;4958713;28;20094;-75
2023/09/07 12:30:56;;;;;;;5.30;2.85;;;29.20;93.10;;;;;;4951873;28;20019;-75
2023/09/07 12:33:21;;;;;;;4.82;2.88;;;29.30;93.40;;;;;;4949553;28;20074;-75
2023/09/07 12:35:47;;;;;;;5.82;3.10;;;29.40;93.70;;;;;;4948623;28;20035;-75
2023/09/07 12:38:17;;;;;;;8.02;3.30;;;29.40;93.70;;;;;;4962068;28;20051;-74
2023/09/07 12:40:43;;;;;;;5.90;3.03;;;29.40;93.90;;;;;;4958439;28;20051;-75
2023/09/07 12:43:09;;;;;;;4.78;3.40;;;29.50;93.80;;;;;;4953789;28;20031;-75